sensor_id;sensor_type;location;lat;lon;timestamp;P1;durP1;ratioP1;P2;durP2;ratioP2
21018;SDS011;10667;51.056;3.732;2023-07-31T00:00:24;19.83;;;7.85;;
21018;SDS011;10667;51.056;3.732;2023-07-31T00:02:51;20.45;;;7.28;;
21018;SDS011;10667;51.056;3.732;2023-07-31T00:05:17;26.13;;;7.40;;
21018;SDS011;10667;51.056;3.732;2023-07-31T00:07:43;23.15;;;7.07;;
21018;SDS011;10667;51.056;3.732;2023-07-31T00:10:09;20.55;;;7.30;;
21018;SDS011;10667;51.056;3.732;2023-07-31T00:12:35;17.60;;;6.97;;
21018;SDS011;10667;51.056;3.732;2023-07-31T00:15:01;25.20;;;8.07;;
21018;SDS011;10667;51.056;3.732;2023-07-31T00:17:27;22.55;;;7.75;;
21018;SDS011;10667;51.056;3.732;2023-07-31T00:19:53;18.30;;;6.57;;
21018;SDS011;10667;51.056;3.732;2023-07-31T00:22:18;19.02;;;7.93;;
21018;SDS011;10667;51.056;3.732;2023-07-31T00:24:44;21.90;;;7.50;;
21018;SDS011;10667;51.056;3.732;2023-07-31T00:27:10;20.73;;;7.75;;
21018;SDS011;10667;51.056;3.732;2023-07-31T00:29:35;22.55;;;7.18;;
21018;SDS011;10667;51.056;3.732;2023-07-31T00:32:01;18.63;;;7.03;;
21018;SDS011;10667;51.056;3.732;2023-07-31T00:34:27;17.42;;;7.38;;
21018;SDS011;10667;51.056;3.732;2023-07-31T00:36:52;17.10;;;6.88;;
21018;SDS011;10667;51.056;3.732;2023-07-31T00:39:18;24.88;;;7.68;;
21018;SDS011;10667;51.056;3.732;2023-07-31T00:41:44;18.63;;;7.45;;
21018;SDS011;10667;51.056;3.732;2023-07-31T00:44:09;21.02;;;6.45;;
21018;SDS011;10667;51.056;3.732;2023-07-31T00:46:35;18.48;;;6.90;;
21018;SDS011;10667;51.056;3.732;2023-07-31T00:49:01;18.90;;;7.35;;
21018;SDS011;10667;51.056;3.732;2023-07-31T00:51:27;20.98;;;7.53;;
21018;SDS011;10667;51.056;3.732;2023-07-31T00:53:53;19.00;;;7.47;;
21018;SDS011;10667;51.056;3.732;2023-07-31T00:56:22;17.13;;;6.57;;
21018;SDS011;10667;51.056;3.732;2023-07-31T00:58:48;21.48;;;6.95;;
21018;SDS011;10667;51.056;3.732;2023-07-31T01:01:14;15.70;;;6.60;;
21018;SDS011;10667;51.056;3.732;2023-07-31T01:03:40;16.35;;;6.70;;
21018;SDS011;10667;51.056;3.732;2023-07-31T01:07:07;20.73;;;7.18;;
21018;SDS011;10667;51.056;3.732;2023-07-31T01:09:02;21.88;;;7.75;;
21018;SDS011;10667;51.056;3.732;2023-07-31T01:11:33;18.27;;;6.97;;
21018;SDS011;10667;51.056;3.732;2023-07-31T01:14:03;13.68;;;6.20;;
21018;SDS011;10667;51.056;3.732;2023-07-31T01:16:29;17.70;;;6.75;;
21018;SDS011;10667;51.056;3.732;2023-07-31T01:18:55;16.05;;;6.78;;
21018;SDS011;10667;51.056;3.732;2023-07-31T01:24:28;19.60;;;7.07;;
21018;SDS011;10667;51.056;3.732;2023-07-31T01:27:10;14.18;;;6.47;;
21018;SDS011;10667;51.056;3.732;2023-07-31T01:29:43;18.42;;;6.70;;
21018;SDS011;10667;51.056;3.732;2023-07-31T01:32:35;17.73;;;7.07;;
21018;SDS011;10667;51.056;3.732;2023-07-31T01:35:04;15.52;;;6.85;;
21018;SDS011;10667;51.056;3.732;2023-07-31T01:37:30;16.88;;;7.13;;
21018;SDS011;10667;51.056;3.732;2023-07-31T01:39:55;21.85;;;6.90;;
21018;SDS011;10667;51.056;3.732;2023-07-31T01:42:21;17.27;;;7.00;;
21018;SDS011;10667;51.056;3.732;2023-07-31T01:44:47;18.15;;;6.35;;
21018;SDS011;10667;51.056;3.732;2023-07-31T01:47:12;15.02;;;6.70;;
21018;SDS011;10667;51.056;3.732;2023-07-31T01:49:38;16.92;;;5.65;;
21018;SDS011;10667;51.056;3.732;2023-07-31T01:52:03;18.20;;;5.95;;
21018;SDS011;10667;51.056;3.732;2023-07-31T01:54:29;15.35;;;5.35;;
21018;SDS011;10667;51.056;3.732;2023-07-31T01:56:55;14.88;;;5.65;;
21018;SDS011;10667;51.056;3.732;2023-07-31T01:59:21;16.38;;;5.90;;
21018;SDS011;10667;51.056;3.732;2023-07-31T02:01:46;14.45;;;6.50;;
21018;SDS011;10667;51.056;3.732;2023-07-31T02:04:12;19.98;;;6.45;;
21018;SDS011;10667;51.056;3.732;2023-07-31T02:06:37;14.50;;;5.45;;
21018;SDS011;10667;51.056;3.732;2023-07-31T02:09:04;17.20;;;6.35;;
21018;SDS011;10667;51.056;3.732;2023-07-31T02:11:29;17.50;;;6.55;;
21018;SDS011;10667;51.056;3.732;2023-07-31T02:13:55;16.23;;;5.57;;
21018;SDS011;10667;51.056;3.732;2023-07-31T02:16:20;17.67;;;6.03;;
21018;SDS011;10667;51.056;3.732;2023-07-31T02:18:46;21.63;;;6.65;;
21018;SDS011;10667;51.056;3.732;2023-07-31T02:21:12;15.52;;;5.78;;
21018;SDS011;10667;51.056;3.732;2023-07-31T02:23:37;17.73;;;6.30;;
21018;SDS011;10667;51.056;3.732;2023-07-31T02:26:03;15.35;;;5.30;;
21018;SDS011;10667;51.056;3.732;2023-07-31T02:28:29;14.98;;;5.88;;
21018;SDS011;10667;51.056;3.732;2023-07-31T02:30:54;17.33;;;5.32;;
21018;SDS011;10667;51.056;3.732;2023-07-31T02:33:20;15.35;;;5.63;;
21018;SDS011;10667;51.056;3.732;2023-07-31T02:35:46;17.55;;;5.97;;
21018;SDS011;10667;51.056;3.732;2023-07-31T02:38:12;20.17;;;5.93;;
21018;SDS011;10667;51.056;3.732;2023-07-31T02:40:38;15.43;;;5.65;;
21018;SDS011;10667;51.056;3.732;2023-07-31T02:43:05;14.25;;;5.70;;
21018;SDS011;10667;51.056;3.732;2023-07-31T02:45:30;13.20;;;5.57;;
21018;SDS011;10667;51.056;3.732;2023-07-31T02:47:56;19.73;;;5.88;;
21018;SDS011;10667;51.056;3.732;2023-07-31T02:50:21;16.00;;;5.60;;
21018;SDS011;10667;51.056;3.732;2023-07-31T02:52:47;12.50;;;5.43;;
21018;SDS011;10667;51.056;3.732;2023-07-31T02:55:13;22.98;;;6.75;;
21018;SDS011;10667;51.056;3.732;2023-07-31T02:57:38;22.23;;;6.15;;
21018;SDS011;10667;51.056;3.732;2023-07-31T03:00:04;17.60;;;5.78;;
21018;SDS011;10667;51.056;3.732;2023-07-31T03:02:31;17.85;;;6.13;;
21018;SDS011;10667;51.056;3.732;2023-07-31T03:04:57;19.88;;;6.32;;
21018;SDS011;10667;51.056;3.732;2023-07-31T03:07:22;15.02;;;6.30;;
21018;SDS011;10667;51.056;3.732;2023-07-31T03:09:48;19.15;;;6.18;;
21018;SDS011;10667;51.056;3.732;2023-07-31T03:12:14;14.65;;;5.50;;
21018;SDS011;10667;51.056;3.732;2023-07-31T03:14:40;16.60;;;5.93;;
21018;SDS011;10667;51.056;3.732;2023-07-31T03:17:05;13.93;;;5.63;;
21018;SDS011;10667;51.056;3.732;2023-07-31T03:19:31;19.85;;;6.68;;
21018;SDS011;10667;51.056;3.732;2023-07-31T03:21:57;16.50;;;6.53;;
21018;SDS011;10667;51.056;3.732;2023-07-31T03:24:23;15.48;;;5.55;;
21018;SDS011;10667;51.056;3.732;2023-07-31T03:26:49;21.27;;;6.85;;
21018;SDS011;10667;51.056;3.732;2023-07-31T03:29:15;16.42;;;6.13;;
21018;SDS011;10667;51.056;3.732;2023-07-31T03:31:41;18.23;;;6.85;;
21018;SDS011;10667;51.056;3.732;2023-07-31T03:34:06;14.30;;;6.90;;
21018;SDS011;10667;51.056;3.732;2023-07-31T03:36:32;15.57;;;6.78;;
21018;SDS011;10667;51.056;3.732;2023-07-31T03:38:57;19.80;;;7.32;;
21018;SDS011;10667;51.056;3.732;2023-07-31T03:41:23;19.20;;;6.93;;
21018;SDS011;10667;51.056;3.732;2023-07-31T03:43:49;16.88;;;7.05;;
21018;SDS011;10667;51.056;3.732;2023-07-31T03:46:21;16.98;;;6.82;;
21018;SDS011;10667;51.056;3.732;2023-07-31T03:48:47;20.60;;;7.00;;
21018;SDS011;10667;51.056;3.732;2023-07-31T03:51:13;19.17;;;6.75;;
21018;SDS011;10667;51.056;3.732;2023-07-31T03:53:38;19.75;;;7.50;;
21018;SDS011;10667;51.056;3.732;2023-07-31T03:56:04;16.88;;;7.22;;
21018;SDS011;10667;51.056;3.732;2023-07-31T03:58:30;17.17;;;6.90;;
21018;SDS011;10667;51.056;3.732;2023-07-31T04:00:55;18.48;;;7.63;;
21018;SDS011;10667;51.056;3.732;2023-07-31T04:03:21;18.20;;;7.13;;
21018;SDS011;10667;51.056;3.732;2023-07-31T04:05:47;17.73;;;7.53;;
21018;SDS011;10667;51.056;3.732;2023-07-31T04:08:12;25.30;;;7.80;;
21018;SDS011;10667;51.056;3.732;2023-07-31T04:10:38;22.77;;;7.35;;
21018;SDS011;10667;51.056;3.732;2023-07-31T04:13:03;17.83;;;7.47;;
21018;SDS011;10667;51.056;3.732;2023-07-31T04:15:29;21.33;;;8.40;;
21018;SDS011;10667;51.056;3.732;2023-07-31T04:17:55;19.77;;;7.72;;
21018;SDS011;10667;51.056;3.732;2023-07-31T04:20:20;18.45;;;7.88;;
21018;SDS011;10667;51.056;3.732;2023-07-31T04:22:46;16.33;;;6.70;;
21018;SDS011;10667;51.056;3.732;2023-07-31T04:25:12;18.23;;;7.32;;
21018;SDS011;10667;51.056;3.732;2023-07-31T04:27:37;15.10;;;7.32;;
21018;SDS011;10667;51.056;3.732;2023-07-31T04:30:04;18.25;;;6.38;;
21018;SDS011;10667;51.056;3.732;2023-07-31T04:32:30;16.35;;;6.70;;
21018;SDS011;10667;51.056;3.732;2023-07-31T04:34:55;19.42;;;6.90;;
21018;SDS011;10667;51.056;3.732;2023-07-31T04:37:21;17.17;;;6.25;;
21018;SDS011;10667;51.056;3.732;2023-07-31T04:39:47;15.65;;;5.35;;
21018;SDS011;10667;51.056;3.732;2023-07-31T04:42:12;14.18;;;6.03;;
21018;SDS011;10667;51.056;3.732;2023-07-31T04:44:38;10.57;;;5.90;;
21018;SDS011;10667;51.056;3.732;2023-07-31T04:47:04;16.50;;;6.63;;
21018;SDS011;10667;51.056;3.732;2023-07-31T04:49:29;13.85;;;5.35;;
21018;SDS011;10667;51.056;3.732;2023-07-31T04:51:56;12.80;;;5.03;;
21018;SDS011;10667;51.056;3.732;2023-07-31T04:54:21;11.05;;;5.28;;
21018;SDS011;10667;51.056;3.732;2023-07-31T04:56:47;14.93;;;6.18;;
21018;SDS011;10667;51.056;3.732;2023-07-31T04:59:13;16.80;;;5.82;;
21018;SDS011;10667;51.056;3.732;2023-07-31T05:01:38;13.25;;;5.85;;
21018;SDS011;10667;51.056;3.732;2023-07-31T05:04:04;12.05;;;5.32;;
21018;SDS011;10667;51.056;3.732;2023-07-31T05:06:30;14.05;;;5.75;;
21018;SDS011;10667;51.056;3.732;2023-07-31T05:08:55;10.88;;;5.18;;
21018;SDS011;10667;51.056;3.732;2023-07-31T05:11:21;11.65;;;5.43;;
21018;SDS011;10667;51.056;3.732;2023-07-31T05:13:47;11.27;;;5.75;;
21018;SDS011;10667;51.056;3.732;2023-07-31T05:16:12;11.75;;;5.65;;
21018;SDS011;10667;51.056;3.732;2023-07-31T05:18:38;14.00;;;5.80;;
21018;SDS011;10667;51.056;3.732;2023-07-31T05:21:04;11.82;;;5.43;;
21018;SDS011;10667;51.056;3.732;2023-07-31T05:23:29;14.20;;;6.03;;
21018;SDS011;10667;51.056;3.732;2023-07-31T05:26:02;13.35;;;6.40;;
21018;SDS011;10667;51.056;3.732;2023-07-31T05:28:31;12.27;;;6.10;;
21018;SDS011;10667;51.056;3.732;2023-07-31T05:30:59;12.68;;;6.20;;
21018;SDS011;10667;51.056;3.732;2023-07-31T05:33:28;8.63;;;5.97;;
21018;SDS011;10667;51.056;3.732;2023-07-31T05:35:54;10.85;;;6.32;;
21018;SDS011;10667;51.056;3.732;2023-07-31T05:38:19;13.60;;;6.45;;
21018;SDS011;10667;51.056;3.732;2023-07-31T05:40:46;12.77;;;5.93;;
21018;SDS011;10667;51.056;3.732;2023-07-31T05:43:12;13.65;;;5.57;;
21018;SDS011;10667;51.056;3.732;2023-07-31T05:45:38;14.10;;;6.00;;
21018;SDS011;10667;51.056;3.732;2023-07-31T05:48:05;12.88;;;6.38;;
21018;SDS011;10667;51.056;3.732;2023-07-31T05:50:30;14.95;;;6.20;;
21018;SDS011;10667;51.056;3.732;2023-07-31T05:52:56;14.35;;;6.18;;
21018;SDS011;10667;51.056;3.732;2023-07-31T05:55:22;13.82;;;6.05;;
21018;SDS011;10667;51.056;3.732;2023-07-31T05:57:49;10.30;;;5.68;;
21018;SDS011;10667;51.056;3.732;2023-07-31T06:00:14;10.40;;;5.85;;
21018;SDS011;10667;51.056;3.732;2023-07-31T06:02:41;11.23;;;6.00;;
21018;SDS011;10667;51.056;3.732;2023-07-31T06:05:06;12.93;;;6.32;;
21018;SDS011;10667;51.056;3.732;2023-07-31T06:07:32;16.42;;;5.97;;
21018;SDS011;10667;51.056;3.732;2023-07-31T06:09:58;12.63;;;5.60;;
21018;SDS011;10667;51.056;3.732;2023-07-31T06:12:29;15.52;;;6.70;;
21018;SDS011;10667;51.056;3.732;2023-07-31T06:14:56;9.68;;;5.68;;
21018;SDS011;10667;51.056;3.732;2023-07-31T06:17:22;10.80;;;5.63;;
21018;SDS011;10667;51.056;3.732;2023-07-31T06:19:47;11.93;;;5.95;;
21018;SDS011;10667;51.056;3.732;2023-07-31T06:22:14;14.35;;;5.78;;
21018;SDS011;10667;51.056;3.732;2023-07-31T06:24:39;13.65;;;5.68;;
21018;SDS011;10667;51.056;3.732;2023-07-31T06:27:05;14.43;;;5.70;;
21018;SDS011;10667;51.056;3.732;2023-07-31T06:29:31;13.85;;;5.00;;
21018;SDS011;10667;51.056;3.732;2023-07-31T06:31:57;12.75;;;5.55;;
21018;SDS011;10667;51.056;3.732;2023-07-31T06:34:24;10.98;;;5.53;;
21018;SDS011;10667;51.056;3.732;2023-07-31T06:36:49;16.55;;;5.90;;
21018;SDS011;10667;51.056;3.732;2023-07-31T06:39:15;16.10;;;5.95;;
21018;SDS011;10667;51.056;3.732;2023-07-31T06:41:41;12.30;;;5.70;;
21018;SDS011;10667;51.056;3.732;2023-07-31T06:44:07;14.57;;;4.93;;
21018;SDS011;10667;51.056;3.732;2023-07-31T06:46:33;13.40;;;5.22;;
21018;SDS011;10667;51.056;3.732;2023-07-31T06:48:59;14.00;;;5.57;;
21018;SDS011;10667;51.056;3.732;2023-07-31T06:51:24;12.35;;;5.13;;
21018;SDS011;10667;51.056;3.732;2023-07-31T06:53:50;12.43;;;5.40;;
21018;SDS011;10667;51.056;3.732;2023-07-31T06:56:16;8.63;;;4.90;;
21018;SDS011;10667;51.056;3.732;2023-07-31T06:58:41;15.13;;;5.55;;
21018;SDS011;10667;51.056;3.732;2023-07-31T07:01:08;9.00;;;4.40;;
21018;SDS011;10667;51.056;3.732;2023-07-31T07:03:33;9.43;;;4.65;;
21018;SDS011;10667;51.056;3.732;2023-07-31T07:05:59;9.93;;;5.20;;
21018;SDS011;10667;51.056;3.732;2023-07-31T07:08:25;11.73;;;5.07;;
21018;SDS011;10667;51.056;3.732;2023-07-31T07:10:50;8.93;;;4.85;;
21018;SDS011;10667;51.056;3.732;2023-07-31T07:13:16;9.32;;;5.18;;
21018;SDS011;10667;51.056;3.732;2023-07-31T07:15:43;9.40;;;4.75;;
21018;SDS011;10667;51.056;3.732;2023-07-31T07:18:13;10.05;;;5.35;;
21018;SDS011;10667;51.056;3.732;2023-07-31T07:20:39;11.32;;;4.80;;
21018;SDS011;10667;51.056;3.732;2023-07-31T07:23:04;12.32;;;4.88;;
21018;SDS011;10667;51.056;3.732;2023-07-31T07:25:30;11.68;;;4.72;;
21018;SDS011;10667;51.056;3.732;2023-07-31T07:27:56;10.30;;;4.78;;
21018;SDS011;10667;51.056;3.732;2023-07-31T07:30:22;9.15;;;4.80;;
21018;SDS011;10667;51.056;3.732;2023-07-31T07:32:50;7.35;;;3.90;;
21018;SDS011;10667;51.056;3.732;2023-07-31T07:35:15;8.13;;;4.55;;
21018;SDS011;10667;51.056;3.732;2023-07-31T07:37:41;6.88;;;3.90;;
21018;SDS011;10667;51.056;3.732;2023-07-31T07:40:07;12.25;;;5.07;;
21018;SDS011;10667;51.056;3.732;2023-07-31T07:42:33;8.38;;;3.97;;
21018;SDS011;10667;51.056;3.732;2023-07-31T07:44:58;8.60;;;4.25;;
21018;SDS011;10667;51.056;3.732;2023-07-31T07:47:24;6.35;;;4.40;;
21018;SDS011;10667;51.056;3.732;2023-07-31T07:49:50;9.20;;;4.00;;
21018;SDS011;10667;51.056;3.732;2023-07-31T07:52:15;6.40;;;3.60;;
21018;SDS011;10667;51.056;3.732;2023-07-31T07:54:41;6.40;;;4.18;;
21018;SDS011;10667;51.056;3.732;2023-07-31T07:57:06;8.48;;;3.90;;
21018;SDS011;10667;51.056;3.732;2023-07-31T07:59:32;9.38;;;3.78;;
21018;SDS011;10667;51.056;3.732;2023-07-31T08:01:58;5.57;;;3.30;;
21018;SDS011;10667;51.056;3.732;2023-07-31T08:04:23;7.18;;;3.60;;
21018;SDS011;10667;51.056;3.732;2023-07-31T08:06:49;8.05;;;3.33;;
21018;SDS011;10667;51.056;3.732;2023-07-31T08:09:15;8.77;;;3.60;;
21018;SDS011;10667;51.056;3.732;2023-07-31T08:11:40;7.03;;;3.50;;
21018;SDS011;10667;51.056;3.732;2023-07-31T08:14:06;4.05;;;2.63;;
21018;SDS011;10667;51.056;3.732;2023-07-31T08:16:32;6.57;;;3.25;;
21018;SDS011;10667;51.056;3.732;2023-07-31T08:18:57;5.28;;;3.30;;
21018;SDS011;10667;51.056;3.732;2023-07-31T08:21:23;5.90;;;2.70;;
21018;SDS011;10667;51.056;3.732;2023-07-31T08:23:49;4.57;;;2.60;;
21018;SDS011;10667;51.056;3.732;2023-07-31T08:26:18;5.90;;;2.80;;
21018;SDS011;10667;51.056;3.732;2023-07-31T08:28:44;5.63;;;3.25;;
21018;SDS011;10667;51.056;3.732;2023-07-31T08:31:10;6.10;;;2.85;;
21018;SDS011;10667;51.056;3.732;2023-07-31T08:33:36;4.28;;;2.53;;
21018;SDS011;10667;51.056;3.732;2023-07-31T08:36:02;3.97;;;2.60;;
21018;SDS011;10667;51.056;3.732;2023-07-31T08:38:28;3.92;;;2.90;;
21018;SDS011;10667;51.056;3.732;2023-07-31T08:40:59;6.43;;;3.03;;
21018;SDS011;10667;51.056;3.732;2023-07-31T08:43:27;4.18;;;2.80;;
21018;SDS011;10667;51.056;3.732;2023-07-31T08:45:53;3.58;;;2.55;;
21018;SDS011;10667;51.056;3.732;2023-07-31T08:48:20;3.88;;;2.78;;
21018;SDS011;10667;51.056;3.732;2023-07-31T08:50:47;4.63;;;2.38;;
21018;SDS011;10667;51.056;3.732;2023-07-31T08:53:13;4.47;;;3.00;;
21018;SDS011;10667;51.056;3.732;2023-07-31T08:55:38;7.60;;;2.90;;
21018;SDS011;10667;51.056;3.732;2023-07-31T08:58:05;6.47;;;2.83;;
21018;SDS011;10667;51.056;3.732;2023-07-31T09:00:32;4.72;;;2.92;;
21018;SDS011;10667;51.056;3.732;2023-07-31T09:02:59;5.80;;;3.00;;
21018;SDS011;10667;51.056;3.732;2023-07-31T09:05:32;4.55;;;2.75;;
21018;SDS011;10667;51.056;3.732;2023-07-31T09:07:58;6.50;;;3.28;;
21018;SDS011;10667;51.056;3.732;2023-07-31T09:10:25;5.43;;;3.50;;
21018;SDS011;10667;51.056;3.732;2023-07-31T09:12:51;4.47;;;2.83;;
21018;SDS011;10667;51.056;3.732;2023-07-31T09:15:17;8.35;;;3.30;;
21018;SDS011;10667;51.056;3.732;2023-07-31T09:17:44;3.65;;;3.08;;
21018;SDS011;10667;51.056;3.732;2023-07-31T09:20:13;6.53;;;3.33;;
21018;SDS011;10667;51.056;3.732;2023-07-31T09:22:44;6.55;;;3.22;;
21018;SDS011;10667;51.056;3.732;2023-07-31T09:25:14;8.15;;;3.78;;
21018;SDS011;10667;51.056;3.732;2023-07-31T09:30:13;4.47;;;3.05;;
21018;SDS011;10667;51.056;3.732;2023-07-31T09:32:39;9.65;;;3.70;;
21018;SDS011;10667;51.056;3.732;2023-07-31T09:35:28;6.90;;;3.63;;
21018;SDS011;10667;51.056;3.732;2023-07-31T09:38:00;6.93;;;4.43;;
21018;SDS011;10667;51.056;3.732;2023-07-31T09:40:33;6.43;;;3.50;;
21018;SDS011;10667;51.056;3.732;2023-07-31T09:43:04;7.00;;;3.97;;
21018;SDS011;10667;51.056;3.732;2023-07-31T09:45:33;5.05;;;3.80;;
21018;SDS011;10667;51.056;3.732;2023-07-31T09:50:47;7.03;;;4.75;;
21018;SDS011;10667;51.056;3.732;2023-07-31T09:53:13;8.15;;;3.85;;
21018;SDS011;10667;51.056;3.732;2023-07-31T09:55:40;6.65;;;4.03;;
21018;SDS011;10667;51.056;3.732;2023-07-31T09:58:11;7.90;;;4.20;;
21018;SDS011;10667;51.056;3.732;2023-07-31T10:00:37;8.85;;;4.57;;
21018;SDS011;10667;51.056;3.732;2023-07-31T10:03:04;9.75;;;5.03;;
21018;SDS011;10667;51.056;3.732;2023-07-31T10:05:35;10.70;;;4.68;;
21018;SDS011;10667;51.056;3.732;2023-07-31T10:08:01;10.63;;;4.80;;
21018;SDS011;10667;51.056;3.732;2023-07-31T10:10:28;8.48;;;4.68;;
21018;SDS011;10667;51.056;3.732;2023-07-31T10:12:54;8.82;;;4.53;;
21018;SDS011;10667;51.056;3.732;2023-07-31T10:15:21;8.73;;;4.32;;
21018;SDS011;10667;51.056;3.732;2023-07-31T10:17:47;8.00;;;4.18;;
21018;SDS011;10667;51.056;3.732;2023-07-31T10:20:15;7.47;;;4.32;;
21018;SDS011;10667;51.056;3.732;2023-07-31T10:22:41;8.50;;;4.55;;
21018;SDS011;10667;51.056;3.732;2023-07-31T10:25:13;8.45;;;4.72;;
21018;SDS011;10667;51.056;3.732;2023-07-31T10:27:40;9.52;;;4.38;;
21018;SDS011;10667;51.056;3.732;2023-07-31T10:30:07;7.75;;;4.63;;
21018;SDS011;10667;51.056;3.732;2023-07-31T10:32:36;6.70;;;4.30;;
21018;SDS011;10667;51.056;3.732;2023-07-31T10:35:03;9.73;;;4.95;;
21018;SDS011;10667;51.056;3.732;2023-07-31T10:37:40;7.68;;;4.82;;
21018;SDS011;10667;51.056;3.732;2023-07-31T10:40:13;8.48;;;5.18;;
21018;SDS011;10667;51.056;3.732;2023-07-31T10:42:46;7.95;;;5.22;;
21018;SDS011;10667;51.056;3.732;2023-07-31T10:45:13;9.50;;;4.90;;
21018;SDS011;10667;51.056;3.732;2023-07-31T10:47:43;7.65;;;5.07;;
21018;SDS011;10667;51.056;3.732;2023-07-31T10:52:44;8.00;;;4.90;;
21018;SDS011;10667;51.056;3.732;2023-07-31T10:55:25;10.85;;;5.03;;
21018;SDS011;10667;51.056;3.732;2023-07-31T10:57:56;8.93;;;5.18;;
21018;SDS011;10667;51.056;3.732;2023-07-31T11:00:29;8.13;;;4.88;;
21018;SDS011;10667;51.056;3.732;2023-07-31T11:05:48;9.88;;;4.50;;
21018;SDS011;10667;51.056;3.732;2023-07-31T11:08:22;6.93;;;4.43;;
21018;SDS011;10667;51.056;3.732;2023-07-31T11:13:27;7.28;;;4.50;;
21018;SDS011;10667;51.056;3.732;2023-07-31T11:15:53;7.95;;;4.15;;
21018;SDS011;10667;51.056;3.732;2023-07-31T11:18:19;6.47;;;4.35;;
21018;SDS011;10667;51.056;3.732;2023-07-31T11:20:45;7.50;;;3.97;;
21018;SDS011;10667;51.056;3.732;2023-07-31T11:23:11;8.27;;;4.00;;
21018;SDS011;10667;51.056;3.732;2023-07-31T11:25:38;6.78;;;3.75;;
21018;SDS011;10667;51.056;3.732;2023-07-31T11:28:10;6.93;;;3.85;;
21018;SDS011;10667;51.056;3.732;2023-07-31T11:30:38;7.78;;;3.85;;
21018;SDS011;10667;51.056;3.732;2023-07-31T11:33:05;5.78;;;3.78;;
21018;SDS011;10667;51.056;3.732;2023-07-31T11:35:33;4.93;;;3.80;;
21018;SDS011;10667;51.056;3.732;2023-07-31T11:38:00;6.63;;;3.67;;
21018;SDS011;10667;51.056;3.732;2023-07-31T11:40:27;6.22;;;3.97;;
21018;SDS011;10667;51.056;3.732;2023-07-31T11:42:56;4.55;;;3.58;;
21018;SDS011;10667;51.056;3.732;2023-07-31T11:45:29;8.35;;;4.20;;
21018;SDS011;10667;51.056;3.732;2023-07-31T11:47:55;9.25;;;3.90;;
21018;SDS011;10667;51.056;3.732;2023-07-31T11:50:22;11.32;;;4.45;;
21018;SDS011;10667;51.056;3.732;2023-07-31T11:52:50;6.55;;;4.57;;
21018;SDS011;10667;51.056;3.732;2023-07-31T11:55:19;9.68;;;4.55;;
21018;SDS011;10667;51.056;3.732;2023-07-31T11:57:45;6.07;;;3.90;;
21018;SDS011;10667;51.056;3.732;2023-07-31T12:00:11;10.32;;;4.80;;
21018;SDS011;10667;51.056;3.732;2023-07-31T12:02:38;8.13;;;4.47;;
21018;SDS011;10667;51.056;3.732;2023-07-31T12:05:05;8.98;;;5.05;;
21018;SDS011;10667;51.056;3.732;2023-07-31T12:10:29;8.40;;;4.35;;
21018;SDS011;10667;51.056;3.732;2023-07-31T12:13:03;9.90;;;4.60;;
21018;SDS011;10667;51.056;3.732;2023-07-31T12:15:39;7.53;;;4.70;;
21018;SDS011;10667;51.056;3.732;2023-07-31T12:18:07;9.40;;;4.95;;
21018;SDS011;10667;51.056;3.732;2023-07-31T12:20:34;12.73;;;4.78;;
21018;SDS011;10667;51.056;3.732;2023-07-31T12:23:00;8.35;;;5.03;;
21018;SDS011;10667;51.056;3.732;2023-07-31T12:25:30;10.80;;;5.20;;
21018;SDS011;10667;51.056;3.732;2023-07-31T12:28:05;12.45;;;5.93;;
21018;SDS011;10667;51.056;3.732;2023-07-31T12:30:36;10.75;;;5.90;;
21018;SDS011;10667;51.056;3.732;2023-07-31T12:33:03;13.65;;;5.85;;
21018;SDS011;10667;51.056;3.732;2023-07-31T12:35:35;7.85;;;5.57;;
21018;SDS011;10667;51.056;3.732;2023-07-31T12:38:02;11.90;;;6.57;;
21018;SDS011;10667;51.056;3.732;2023-07-31T12:40:27;13.30;;;6.80;;
21018;SDS011;10667;51.056;3.732;2023-07-31T12:42:53;12.27;;;6.75;;
21018;SDS011;10667;51.056;3.732;2023-07-31T12:45:18;9.43;;;6.53;;
21018;SDS011;10667;51.056;3.732;2023-07-31T12:47:46;12.38;;;6.78;;
21018;SDS011;10667;51.056;3.732;2023-07-31T12:50:11;11.65;;;6.85;;
21018;SDS011;10667;51.056;3.732;2023-07-31T12:52:37;9.15;;;6.25;;
21018;SDS011;10667;51.056;3.732;2023-07-31T12:55:03;9.60;;;6.63;;
21018;SDS011;10667;51.056;3.732;2023-07-31T12:57:29;10.10;;;5.38;;
21018;SDS011;10667;51.056;3.732;2023-07-31T12:59:55;9.52;;;6.13;;
21018;SDS011;10667;51.056;3.732;2023-07-31T13:02:21;8.90;;;4.95;;
21018;SDS011;10667;51.056;3.732;2023-07-31T13:04:47;9.05;;;4.60;;
21018;SDS011;10667;51.056;3.732;2023-07-31T13:07:15;10.60;;;4.65;;
21018;SDS011;10667;51.056;3.732;2023-07-31T13:09:40;6.55;;;4.10;;
21018;SDS011;10667;51.056;3.732;2023-07-31T13:12:06;6.53;;;4.13;;
21018;SDS011;10667;51.056;3.732;2023-07-31T13:14:32;8.35;;;4.72;;
21018;SDS011;10667;51.056;3.732;2023-07-31T13:16:57;8.68;;;3.97;;
21018;SDS011;10667;51.056;3.732;2023-07-31T13:19:23;4.65;;;3.28;;
21018;SDS011;10667;51.056;3.732;2023-07-31T13:21:49;6.05;;;3.72;;
21018;SDS011;10667;51.056;3.732;2023-07-31T13:24:15;6.93;;;3.25;;
21018;SDS011;10667;51.056;3.732;2023-07-31T13:26:40;6.15;;;3.65;;
21018;SDS011;10667;51.056;3.732;2023-07-31T13:29:06;7.20;;;3.28;;
21018;SDS011;10667;51.056;3.732;2023-07-31T13:31:31;4.82;;;3.13;;
21018;SDS011;10667;51.056;3.732;2023-07-31T13:33:57;6.07;;;3.35;;
21018;SDS011;10667;51.056;3.732;2023-07-31T13:36:23;6.95;;;2.90;;
21018;SDS011;10667;51.056;3.732;2023-07-31T13:38:49;4.53;;;2.90;;
21018;SDS011;10667;51.056;3.732;2023-07-31T13:41:14;3.63;;;2.70;;
21018;SDS011;10667;51.056;3.732;2023-07-31T13:43:40;5.57;;;3.00;;
21018;SDS011;10667;51.056;3.732;2023-07-31T13:46:06;3.85;;;2.63;;
21018;SDS011;10667;51.056;3.732;2023-07-31T13:48:35;5.07;;;2.75;;
21018;SDS011;10667;51.056;3.732;2023-07-31T13:51:01;4.25;;;2.92;;
21018;SDS011;10667;51.056;3.732;2023-07-31T13:53:27;6.28;;;3.20;;
21018;SDS011;10667;51.056;3.732;2023-07-31T13:55:53;5.88;;;3.08;;
21018;SDS011;10667;51.056;3.732;2023-07-31T13:58:18;6.63;;;3.45;;
21018;SDS011;10667;51.056;3.732;2023-07-31T14:00:45;7.90;;;3.67;;
21018;SDS011;10667;51.056;3.732;2023-07-31T14:03:11;7.03;;;3.50;;
21018;SDS011;10667;51.056;3.732;2023-07-31T14:05:36;9.30;;;3.80;;
21018;SDS011;10667;51.056;3.732;2023-07-31T14:08:02;8.68;;;4.72;;
21018;SDS011;10667;51.056;3.732;2023-07-31T14:10:28;7.47;;;4.28;;
21018;SDS011;10667;51.056;3.732;2023-07-31T14:12:54;12.02;;;4.75;;
21018;SDS011;10667;51.056;3.732;2023-07-31T14:15:20;9.60;;;4.43;;
21018;SDS011;10667;51.056;3.732;2023-07-31T14:17:45;11.23;;;4.80;;
21018;SDS011;10667;51.056;3.732;2023-07-31T14:20:11;10.63;;;5.03;;
21018;SDS011;10667;51.056;3.732;2023-07-31T14:22:37;8.77;;;4.32;;
21018;SDS011;10667;51.056;3.732;2023-07-31T14:25:03;6.75;;;4.20;;
21018;SDS011;10667;51.056;3.732;2023-07-31T14:27:29;8.10;;;3.97;;
21018;SDS011;10667;51.056;3.732;2023-07-31T14:29:55;11.13;;;4.72;;
21018;SDS011;10667;51.056;3.732;2023-07-31T14:32:24;6.28;;;3.90;;
21018;SDS011;10667;51.056;3.732;2023-07-31T14:34:50;6.82;;;4.03;;
21018;SDS011;10667;51.056;3.732;2023-07-31T14:37:16;11.80;;;4.20;;
21018;SDS011;10667;51.056;3.732;2023-07-31T14:39:42;8.68;;;4.00;;
21018;SDS011;10667;51.056;3.732;2023-07-31T14:42:10;6.90;;;3.72;;
21018;SDS011;10667;51.056;3.732;2023-07-31T14:44:36;9.35;;;4.40;;
21018;SDS011;10667;51.056;3.732;2023-07-31T14:47:02;7.53;;;3.85;;
21018;SDS011;10667;51.056;3.732;2023-07-31T14:49:28;5.88;;;3.33;;
21018;SDS011;10667;51.056;3.732;2023-07-31T14:51:54;7.78;;;3.63;;
21018;SDS011;10667;51.056;3.732;2023-07-31T14:54:20;7.00;;;4.05;;
21018;SDS011;10667;51.056;3.732;2023-07-31T14:56:45;7.47;;;3.15;;